createdAt,value
2017-10-30T00:00:46.923Z,85.15
2017-10-30T00:03:14.534Z,84.85
2017-10-30T00:05:42.142Z,85.22
2017-10-30T00:08:09.802Z,85.37
2017-10-30T00:10:37.391Z,85.49
2017-10-30T00:13:05.002Z,85.48
2017-10-30T00:15:32.591Z,85.43
2017-10-30T00:18:00.235Z,85.58
2017-10-30T00:20:27.840Z,85.65
2017-10-30T00:22:55.454Z,85.75
2017-10-30T00:25:23.065Z,85.55
2017-10-30T00:27:50.804Z,85.55
2017-10-30T00:30:18.402Z,85.67
2017-10-30T00:32:46.146Z,85.68
2017-10-30T00:35:13.730Z,85.52
2017-10-30T00:37:41.390Z,85.42
2017-10-30T00:40:10.526Z,85.23
2017-10-30T00:42:38.162Z,85.27
2017-10-30T00:45:05.792Z,85.30
2017-10-30T00:47:33.410Z,85.43
2017-10-30T00:50:01.003Z,85.70
2017-10-30T00:52:28.614Z,85.75
2017-10-30T00:54:56.202Z,85.87
2017-10-30T00:57:23.830Z,85.85
2017-10-30T00:59:51.422Z,85.79
2017-10-30T01:02:19.023Z,85.72
2017-10-30T01:04:46.654Z,85.78
2017-10-30T01:07:14.239Z,85.78
2017-10-30T01:09:41.886Z,86.29
2017-10-30T01:12:09.483Z,86.36
2017-10-30T01:14:37.109Z,86.32
2017-10-30T01:17:04.691Z,86.55
2017-10-30T01:19:32.348Z,86.40
2017-10-30T01:21:59.955Z,86.45
2017-10-30T01:24:27.648Z,86.43
2017-10-30T01:26:55.231Z,86.36
2017-10-30T01:29:22.861Z,86.38
2017-10-30T01:31:50.471Z,86.20
2017-10-30T01:34:18.106Z,86.18
2017-10-30T01:36:45.692Z,86.07
2017-10-30T01:39:13.299Z,86.02
2017-10-30T01:41:40.886Z,86.28
2017-10-30T01:44:08.492Z,86.54
2017-10-30T01:46:36.079Z,86.82
2017-10-30T01:49:03.698Z,86.75
2017-10-30T01:51:31.286Z,86.51
2017-10-30T01:53:58.910Z,86.49
2017-10-30T01:56:26.498Z,86.77
2017-10-30T01:58:54.126Z,86.93
2017-10-30T02:01:21.704Z,87.08
2017-10-30T02:03:49.316Z,87.04
2017-10-30T02:06:16.986Z,86.89
2017-10-30T02:08:44.629Z,86.81
2017-10-30T02:11:12.218Z,86.77
2017-10-30T02:13:39.869Z,86.37
2017-10-30T02:16:07.532Z,86.25
2017-10-30T02:18:35.123Z,86.15
2017-10-30T02:21:02.766Z,86.02
2017-10-30T02:23:30.370Z,85.98
2017-10-30T02:25:57.974Z,85.96
2017-10-30T02:28:25.591Z,85.68
2017-10-30T02:30:53.174Z,85.93
2017-10-30T02:33:20.790Z,85.95
2017-10-30T02:35:48.384Z,85.88
2017-10-30T02:38:15.999Z,85.84
2017-10-30T02:40:43.609Z,85.75
2017-10-30T02:43:11.231Z,85.67
2017-10-30T02:45:38.803Z,85.35
2017-10-30T02:48:06.416Z,85.26
2017-10-30T02:50:34.050Z,85.35
2017-10-30T02:53:01.655Z,85.52
2017-10-30T02:55:29.239Z,85.97
2017-10-30T02:57:56.863Z,86.11
2017-10-30T03:00:26.276Z,86.08
2017-10-30T03:02:53.895Z,86.21
2017-10-30T03:05:21.545Z,86.20
2017-10-30T03:07:49.148Z,86.02
2017-10-30T03:10:16.751Z,86.06
2017-10-30T03:12:44.360Z,86.24
2017-10-30T03:15:11.947Z,86.47
2017-10-30T03:17:39.583Z,86.67
2017-10-30T03:20:07.187Z,86.78
2017-10-30T03:22:34.778Z,87.04
2017-10-30T03:25:02.371Z,87.11
2017-10-30T03:27:29.954Z,87.24
2017-10-30T03:29:57.556Z,87.29
2017-10-30T03:32:25.170Z,87.28
2017-10-30T03:34:52.878Z,87.32
2017-10-30T03:37:20.464Z,87.49
2017-10-30T03:39:48.086Z,87.45
2017-10-30T03:42:15.666Z,87.58
2017-10-30T03:44:43.302Z,87.71
2017-10-30T03:47:10.879Z,87.86
2017-10-30T03:49:38.490Z,87.83
2017-10-30T03:52:06.102Z,87.90
2017-10-30T03:54:33.729Z,87.84
2017-10-30T03:57:01.299Z,87.93
2017-10-30T03:59:28.914Z,88.09
2017-10-30T04:01:56.559Z,87.99
2017-10-30T04:04:24.183Z,88.19
2017-10-30T04:06:51.767Z,88.33
2017-10-30T04:09:19.406Z,88.26
2017-10-30T04:11:47.027Z,88.28
2017-10-30T04:14:14.646Z,88.30
2017-10-30T04:16:42.239Z,88.49
2017-10-30T04:19:09.858Z,88.67
2017-10-30T04:21:37.463Z,88.72
2017-10-30T04:24:05.100Z,88.56
2017-10-30T04:26:32.779Z,88.29
2017-10-30T04:29:00.440Z,88.26
2017-10-30T04:31:28.068Z,88.29
2017-10-30T04:33:55.664Z,88.42
2017-10-30T04:36:23.294Z,88.25
2017-10-30T04:38:50.946Z,88.01
2017-10-30T04:41:18.586Z,87.85
2017-10-30T04:43:46.179Z,87.87
2017-10-30T04:46:13.806Z,88.05
2017-10-30T04:48:41.435Z,88.11
2017-10-30T04:51:09.061Z,88.01
2017-10-30T04:53:36.684Z,88.08
2017-10-30T04:56:04.267Z,88.21
2017-10-30T04:58:32.016Z,88.11
2017-10-30T05:00:59.654Z,88.00
2017-10-30T05:03:27.253Z,87.85
2017-10-30T05:05:54.874Z,87.89
2017-10-30T05:08:22.511Z,88.05
2017-10-30T05:10:50.094Z,88.36
2017-10-30T05:13:17.691Z,88.51
2017-10-30T05:15:45.311Z,88.35
2017-10-30T05:18:12.934Z,88.43
2017-10-30T05:20:40.538Z,88.52
2017-10-30T05:23:08.135Z,88.29
2017-10-30T05:25:35.754Z,87.99
2017-10-30T05:28:03.366Z,87.91
2017-10-30T05:30:31.064Z,87.87
2017-10-30T05:32:58.652Z,87.93
2017-10-30T05:35:26.286Z,87.82
2017-10-30T05:37:53.883Z,87.84
2017-10-30T05:40:21.515Z,87.88
2017-10-30T05:42:49.114Z,87.79
2017-10-30T05:45:16.731Z,87.86
2017-10-30T05:47:44.318Z,88.02
2017-10-30T05:50:11.934Z,88.19
2017-10-30T05:52:39.523Z,88.26
2017-10-30T05:55:07.172Z,88.25
2017-10-30T05:57:34.758Z,88.53
2017-10-30T06:00:02.379Z,88.52
2017-10-30T06:02:30.028Z,88.45
2017-10-30T06:04:57.694Z,88.33
2017-10-30T06:07:25.292Z,88.41
2017-10-30T06:09:52.912Z,88.53
2017-10-30T06:12:20.500Z,88.76
2017-10-30T06:14:48.140Z,88.88
2017-10-30T06:17:15.747Z,89.00
2017-10-30T06:19:43.343Z,88.96
2017-10-30T06:22:10.964Z,88.81
2017-10-30T06:24:38.600Z,88.99
2017-10-30T06:27:06.210Z,88.82
2017-10-30T06:29:33.830Z,88.73
2017-10-30T06:32:01.449Z,88.66
2017-10-30T06:34:29.039Z,88.96
2017-10-30T06:36:56.661Z,89.20
2017-10-30T06:39:24.268Z,89.28
2017-10-30T06:41:51.886Z,89.05
2017-10-30T06:44:19.491Z,88.99
2017-10-30T06:46:47.115Z,88.95
2017-10-30T06:49:14.714Z,89.02
2017-10-30T06:51:42.446Z,88.93
2017-10-30T06:54:10.029Z,88.67
2017-10-30T06:56:37.638Z,89.04
2017-10-30T06:59:05.230Z,88.93
2017-10-30T07:01:32.867Z,88.88
2017-10-30T07:04:00.535Z,89.11
2017-10-30T07:06:28.214Z,89.54
2017-10-30T07:08:55.803Z,89.63
2017-10-30T07:11:23.460Z,89.70
2017-10-30T07:13:51.056Z,89.50
2017-10-30T07:16:18.625Z,89.48
2017-10-30T07:18:46.331Z,89.63
2017-10-30T07:21:13.933Z,89.18
2017-10-30T07:23:41.560Z,89.17
2017-10-30T07:26:09.156Z,88.88
2017-10-30T07:28:36.777Z,89.00
2017-10-30T07:31:04.376Z,89.04
2017-10-30T07:33:32.007Z,89.24
2017-10-30T07:35:59.587Z,89.08
2017-10-30T07:38:27.242Z,88.69
2017-10-30T07:40:54.842Z,88.35
2017-10-30T07:43:22.478Z,88.29
2017-10-30T07:45:50.069Z,88.35
2017-10-30T07:48:17.698Z,88.02
2017-10-30T07:50:45.290Z,87.94
2017-10-30T07:53:13.000Z,87.76
2017-10-30T07:55:40.598Z,87.64
2017-10-30T07:58:08.207Z,87.71
2017-10-30T08:00:35.938Z,87.77
2017-10-30T08:03:03.575Z,87.89
2017-10-30T08:05:31.199Z,87.95
2017-10-30T08:07:58.852Z,87.75
2017-10-30T08:10:26.439Z,87.56
2017-10-30T08:12:54.058Z,87.30
2017-10-30T08:15:21.699Z,87.23
2017-10-30T08:17:49.318Z,87.11
2017-10-30T08:20:16.894Z,86.70
2017-10-30T08:22:44.512Z,86.91
2017-10-30T08:25:12.094Z,87.13
2017-10-30T08:27:39.775Z,86.76
2017-10-30T08:30:07.362Z,86.61
2017-10-30T08:32:34.983Z,86.31
2017-10-30T08:35:02.575Z,86.35
2017-10-30T08:37:30.162Z,86.43
2017-10-30T08:39:57.794Z,86.26
2017-10-30T08:42:25.416Z,86.23
2017-10-30T08:44:53.014Z,86.12
2017-10-30T08:47:20.724Z,85.62
2017-10-30T08:49:48.312Z,85.31
2017-10-30T08:52:15.933Z,84.11
2017-10-30T08:54:43.549Z,84.25
2017-10-30T08:57:11.147Z,84.14
2017-10-30T08:59:38.770Z,83.86
2017-10-30T09:02:06.362Z,83.74
2017-10-30T09:04:33.982Z,82.35
2017-10-30T09:07:01.627Z,81.84
2017-10-30T09:09:29.867Z,82.23
2017-10-30T09:11:57.455Z,80.82
2017-10-30T09:14:25.081Z,80.43
2017-10-30T09:16:52.659Z,79.74
2017-10-30T09:19:20.306Z,79.64
2017-10-30T09:21:47.959Z,79.12
2017-10-30T09:24:15.571Z,79.02
2017-10-30T09:26:43.152Z,78.54
2017-10-30T09:29:10.819Z,78.19
2017-10-30T09:31:38.425Z,76.95
2017-10-30T09:34:06.051Z,75.85
2017-10-30T09:36:33.633Z,75.72
2017-10-30T09:39:01.304Z,75.58
2017-10-30T09:41:28.888Z,74.26
2017-10-30T09:43:56.528Z,74.66
2017-10-30T09:46:24.163Z,74.30
2017-10-30T09:48:51.785Z,74.01
2017-10-30T09:51:19.539Z,73.89
2017-10-30T09:53:47.330Z,72.10
2017-10-30T09:56:14.962Z,72.34
2017-10-30T09:58:42.578Z,72.43
2017-10-30T10:01:10.181Z,71.31
2017-10-30T10:03:37.834Z,70.51
2017-10-30T10:06:05.716Z,69.46
2017-10-30T10:08:33.429Z,69.91
2017-10-30T10:11:01.076Z,70.09
2017-10-30T10:13:28.939Z,70.56
2017-10-30T10:15:56.583Z,69.48
2017-10-30T10:18:24.221Z,70.16
2017-10-30T10:20:51.986Z,70.76
2017-10-30T10:23:19.649Z,70.92
2017-10-30T10:25:47.350Z,70.67
2017-10-30T10:28:14.939Z,70.17
2017-10-30T10:30:42.678Z,69.33
2017-10-30T10:33:10.284Z,68.75
2017-10-30T10:35:37.934Z,68.41
2017-10-30T10:38:05.530Z,67.79
2017-10-30T10:40:33.146Z,66.43
2017-10-30T10:43:00.776Z,66.11
2017-10-30T10:45:28.392Z,65.47
2017-10-30T10:47:55.971Z,63.65
2017-10-30T10:50:23.706Z,63.80
2017-10-30T10:52:51.290Z,64.70
2017-10-30T10:55:18.945Z,65.57
2017-10-30T10:57:51.140Z,64.61
2017-10-30T11:00:20.692Z,64.81
2017-10-30T11:02:48.483Z,64.72
2017-10-30T11:05:16.203Z,65.75
2017-10-30T11:07:44.150Z,65.94
2017-10-30T11:10:12.272Z,65.10
2017-10-30T11:12:40.025Z,62.21
2017-10-30T11:15:09.993Z,62.61
2017-10-30T11:17:37.757Z,61.91
2017-10-30T11:20:06.598Z,62.76
2017-10-30T11:22:34.226Z,63.58
2017-10-30T11:25:01.855Z,65.09
2017-10-30T11:27:29.479Z,65.94
2017-10-30T11:29:57.082Z,65.84
2017-10-30T11:32:24.718Z,66.41
2017-10-30T11:34:52.323Z,66.40
2017-10-30T11:37:19.961Z,66.74
2017-10-30T11:39:47.554Z,67.00
2017-10-30T11:42:15.226Z,67.03
2017-10-30T11:44:42.826Z,67.65
2017-10-30T11:47:10.479Z,67.21
2017-10-30T11:49:38.082Z,67.20
2017-10-30T11:52:05.750Z,66.88
2017-10-30T11:54:33.350Z,66.84
2017-10-30T11:57:00.943Z,66.92
2017-10-30T11:59:28.578Z,66.92
2017-10-30T12:01:56.187Z,66.67
2017-10-30T12:04:23.827Z,65.63
2017-10-30T12:06:51.439Z,65.78
2017-10-30T12:09:19.078Z,63.68
2017-10-30T12:11:46.680Z,62.96
2017-10-30T12:14:14.444Z,62.92
2017-10-30T12:16:42.058Z,63.15
2017-10-30T12:19:09.701Z,63.23
2017-10-30T12:21:37.288Z,63.76
2017-10-30T12:24:04.912Z,64.25
2017-10-30T12:26:32.511Z,65.11
2017-10-30T12:29:00.162Z,64.47
2017-10-30T12:31:27.845Z,64.50
2017-10-30T12:33:55.539Z,64.80
2017-10-30T12:36:23.138Z,64.76
2017-10-30T12:38:50.742Z,65.04
2017-10-30T12:41:18.385Z,65.13
2017-10-30T12:43:46.029Z,65.12
2017-10-30T12:46:13.667Z,64.96
2017-10-30T12:48:41.318Z,65.31
2017-10-30T12:51:08.954Z,65.44
2017-10-30T12:53:36.565Z,63.92
2017-10-30T12:56:04.218Z,61.40
2017-10-30T12:58:31.812Z,58.70
2017-10-30T13:00:59.437Z,58.81
2017-10-30T13:03:27.032Z,59.75
2017-10-30T13:05:54.670Z,59.10
2017-10-30T13:08:22.270Z,58.25
2017-10-30T13:10:50.007Z,58.78
2017-10-30T13:13:17.616Z,60.46
2017-10-30T13:15:45.307Z,61.15
2017-10-30T13:18:12.952Z,61.49
2017-10-30T13:20:40.564Z,60.80
2017-10-30T13:23:08.182Z,60.14
2017-10-30T13:25:35.795Z,59.42
2017-10-30T13:28:03.428Z,59.90
2017-10-30T13:30:31.031Z,60.20
2017-10-30T13:32:58.809Z,61.01
2017-10-30T13:35:26.404Z,60.90
2017-10-30T13:37:54.048Z,60.49
2017-10-30T13:40:21.630Z,59.97
2017-10-30T13:42:49.255Z,60.08
2017-10-30T13:45:16.864Z,58.76
2017-10-30T13:47:44.523Z,57.21
2017-10-30T13:50:12.120Z,58.66
2017-10-30T13:52:39.782Z,59.65
2017-10-30T13:55:07.391Z,59.85
2017-10-30T13:57:35.035Z,60.84
2017-10-30T14:00:02.648Z,60.18
2017-10-30T14:02:30.243Z,59.95
2017-10-30T14:04:57.850Z,59.67
2017-10-30T14:07:25.515Z,58.94
2017-10-30T14:09:53.182Z,58.04
2017-10-30T14:12:20.827Z,56.81
2017-10-30T14:14:48.477Z,56.52
2017-10-30T14:17:16.076Z,56.28
2017-10-30T14:19:43.711Z,54.99
2017-10-30T14:22:11.349Z,54.07
2017-10-30T14:24:38.974Z,53.82
2017-10-30T14:27:06.581Z,54.14
2017-10-30T14:29:34.203Z,54.77
2017-10-30T14:32:01.939Z,56.39
2017-10-30T14:34:29.557Z,57.19
2017-10-30T14:36:57.173Z,57.66
2017-10-30T14:39:24.839Z,58.49
2017-10-30T14:41:52.446Z,58.77
2017-10-30T14:44:20.060Z,58.89
2017-10-30T14:46:47.678Z,60.02
2017-10-30T14:49:15.318Z,60.18
2017-10-30T14:51:42.924Z,59.52
2017-10-30T14:54:10.565Z,58.49
2017-10-30T14:56:38.165Z,58.34
2017-10-30T14:59:05.935Z,59.01
2017-10-30T15:01:33.518Z,59.17
2017-10-30T15:04:01.145Z,59.12
2017-10-30T15:06:29.638Z,59.20
2017-10-30T15:08:57.294Z,59.27
2017-10-30T15:11:24.928Z,59.35
2017-10-30T15:13:52.539Z,60.04
2017-10-30T15:16:20.158Z,60.99
2017-10-30T15:18:47.755Z,61.29
2017-10-30T15:21:15.402Z,61.48
2017-10-30T15:23:42.987Z,62.05
2017-10-30T15:26:10.632Z,62.23
2017-10-30T15:28:38.257Z,61.90
2017-10-30T15:31:05.888Z,62.61
2017-10-30T15:33:33.473Z,62.54
2017-10-30T15:36:01.099Z,63.04
2017-10-30T15:38:28.738Z,63.49
2017-10-30T15:40:56.330Z,63.75
2017-10-30T15:43:23.950Z,63.58
2017-10-30T15:45:51.530Z,63.77
2017-10-30T15:48:19.170Z,63.80
2017-10-30T15:50:46.787Z,64.12
2017-10-30T15:53:14.402Z,64.48
2017-10-30T15:55:41.991Z,64.71
2017-10-30T15:58:09.610Z,65.03
2017-10-30T16:00:37.216Z,65.43
2017-10-30T16:03:04.857Z,65.49
2017-10-30T16:05:32.451Z,65.46
2017-10-30T16:08:00.092Z,65.89
2017-10-30T16:10:27.694Z,66.22
2017-10-30T16:12:55.308Z,66.48
2017-10-30T16:15:23.011Z,66.70
2017-10-30T16:17:50.614Z,66.93
2017-10-30T16:20:18.282Z,67.18
2017-10-30T16:22:45.894Z,67.30
2017-10-30T16:25:13.534Z,67.52
2017-10-30T16:27:41.147Z,67.70
2017-10-30T16:30:08.877Z,68.09
2017-10-30T16:32:36.539Z,68.29
2017-10-30T16:35:04.193Z,68.43
2017-10-30T16:37:31.781Z,68.77
2017-10-30T16:39:59.387Z,68.88
2017-10-30T16:42:26.987Z,68.79
2017-10-30T16:44:54.623Z,68.94
2017-10-30T16:47:22.227Z,69.21
2017-10-30T16:49:49.842Z,69.41
2017-10-30T16:52:17.527Z,69.51
2017-10-30T16:54:45.118Z,69.91
2017-10-30T16:57:12.749Z,69.90
2017-10-30T16:59:40.341Z,70.29
2017-10-30T17:02:07.992Z,70.43
2017-10-30T17:04:35.602Z,71.14
2017-10-30T17:07:03.275Z,70.51
2017-10-30T17:09:30.875Z,70.53
2017-10-30T17:11:58.511Z,70.71
2017-10-30T17:14:26.155Z,70.53
2017-10-30T17:16:53.797Z,70.58
2017-10-30T17:19:21.402Z,70.63
2017-10-30T17:21:49.048Z,70.89
2017-10-30T17:24:16.658Z,70.83
2017-10-30T17:26:44.319Z,71.04
2017-10-30T17:29:11.955Z,71.03
2017-10-30T17:31:39.592Z,71.42
2017-10-30T17:34:07.176Z,70.99
2017-10-30T17:36:34.902Z,70.96
2017-10-30T17:39:02.502Z,71.11
2017-10-30T17:41:30.304Z,71.30
2017-10-30T17:43:57.915Z,71.27
2017-10-30T17:46:25.535Z,70.98
2017-10-30T17:48:53.229Z,70.85
2017-10-30T17:51:20.822Z,73.01
2017-10-30T17:53:48.483Z,71.61
2017-10-30T17:56:16.098Z,71.67
2017-10-30T17:58:43.769Z,70.99
2017-10-30T18:01:11.396Z,70.86
2017-10-30T18:03:39.063Z,70.91
2017-10-30T18:06:06.683Z,70.76
2017-10-30T18:08:34.317Z,70.71
2017-10-30T18:11:01.947Z,70.32
2017-10-30T18:13:29.597Z,70.49
2017-10-30T18:15:57.206Z,70.13
2017-10-30T18:18:24.838Z,70.14
2017-10-30T18:20:52.486Z,70.14
2017-10-30T18:23:20.141Z,70.31
2017-10-30T18:25:47.763Z,70.40
2017-10-30T18:28:15.407Z,70.49
2017-10-30T18:30:43.002Z,71.27
2017-10-30T18:33:10.675Z,71.06
2017-10-30T18:35:38.294Z,71.87
2017-10-30T18:38:05.959Z,71.76
2017-10-30T18:40:33.613Z,71.56
2017-10-30T18:43:01.247Z,71.87
2017-10-30T18:45:28.835Z,71.88
2017-10-30T18:47:56.489Z,72.09
2017-10-30T18:50:24.083Z,72.34
2017-10-30T18:52:51.727Z,72.53
2017-10-30T18:55:19.340Z,72.52
2017-10-30T18:57:47.090Z,72.69
2017-10-30T19:00:14.681Z,72.59
2017-10-30T19:02:42.279Z,72.71
2017-10-30T19:05:09.948Z,72.94
2017-10-30T19:07:37.596Z,73.86
2017-10-30T19:10:05.245Z,73.87
2017-10-30T19:12:32.843Z,74.08
2017-10-30T19:15:00.511Z,74.28
2017-10-30T19:17:28.150Z,74.56
2017-10-30T19:19:55.843Z,74.69
2017-10-30T19:22:23.445Z,74.92
2017-10-30T19:24:51.082Z,74.77
2017-10-30T19:27:18.700Z,74.93
2017-10-30T19:29:46.342Z,75.04
2017-10-30T19:32:14.014Z,75.11
2017-10-30T19:34:41.648Z,77.49
2017-10-30T19:37:09.255Z,88.31
2017-10-30T19:39:36.943Z,82.15
2017-10-30T19:42:04.567Z,78.44
2017-10-30T19:44:32.239Z,78.04
2017-10-30T19:46:59.914Z,74.40
2017-10-30T19:49:27.792Z,72.49
2017-10-30T19:51:55.429Z,68.22
2017-10-30T19:54:23.031Z,66.54
2017-10-30T19:56:50.682Z,64.70
2017-10-30T19:59:18.305Z,62.67
2017-10-30T20:01:45.959Z,61.81
2017-10-30T20:04:13.566Z,60.74
2017-10-30T20:06:46.640Z,60.17
2017-10-30T20:09:19.732Z,59.32
2017-10-30T20:11:52.795Z,57.05
2017-10-30T20:14:20.399Z,55.86
2017-10-30T20:16:48.045Z,56.53
2017-10-30T20:19:15.665Z,57.42
2017-10-30T20:21:43.369Z,58.58
2017-10-30T20:24:11.000Z,59.83
2017-10-30T20:26:38.649Z,60.84
2017-10-30T20:29:06.248Z,61.95
2017-10-30T20:31:33.896Z,62.98
2017-10-30T20:34:01.503Z,63.93
2017-10-30T20:36:29.138Z,64.44
2017-10-30T20:38:56.731Z,64.90
2017-10-30T20:41:24.384Z,76.13
2017-10-30T20:43:52.009Z,72.36
2017-10-30T20:46:19.687Z,71.89
2017-10-30T20:48:47.300Z,71.33
2017-10-30T20:51:14.990Z,72.53
2017-10-30T20:53:42.607Z,71.14
2017-10-30T20:56:10.292Z,78.86
2017-10-30T20:58:37.930Z,58.19
2017-10-30T21:01:05.589Z,57.81
2017-10-30T21:03:33.190Z,58.95
2017-10-30T21:06:00.847Z,60.42
2017-10-30T21:08:28.463Z,61.73
2017-10-30T21:10:56.090Z,63.23
2017-10-30T21:13:23.709Z,64.60
2017-10-30T21:15:51.350Z,65.64
2017-10-30T21:18:18.961Z,66.58
2017-10-30T21:20:46.611Z,67.38
2017-10-30T21:23:14.246Z,68.30
2017-10-30T21:25:41.903Z,68.87
2017-10-30T21:28:09.491Z,69.65
2017-10-30T21:30:37.124Z,70.41
2017-10-30T21:33:04.739Z,70.98
2017-10-30T21:35:32.371Z,71.47
2017-10-30T21:37:59.974Z,71.90
2017-10-30T21:40:27.598Z,72.26
2017-10-30T21:42:55.219Z,73.06
2017-10-30T21:45:22.882Z,73.59
2017-10-30T21:47:50.509Z,81.05
2017-10-30T21:50:18.170Z,75.13
2017-10-30T21:52:45.832Z,75.50
2017-10-30T21:55:13.503Z,76.06
2017-10-30T21:57:41.107Z,76.93
2017-10-30T22:00:08.750Z,77.31
2017-10-30T22:02:36.363Z,77.67
2017-10-30T22:05:03.988Z,77.69
2017-10-30T22:07:31.619Z,77.61
2017-10-30T22:09:59.270Z,77.62
2017-10-30T22:12:26.895Z,77.86
2017-10-30T22:14:54.514Z,77.45
2017-10-30T22:17:22.155Z,77.36
2017-10-30T22:19:49.788Z,77.78
2017-10-30T22:22:17.463Z,78.22
2017-10-30T22:24:45.108Z,78.14
2017-10-30T22:27:12.713Z,78.24
2017-10-30T22:29:40.343Z,78.44
2017-10-30T22:32:07.982Z,78.63
2017-10-30T22:34:35.660Z,79.09
2017-10-30T22:37:03.262Z,79.88
2017-10-30T22:39:30.891Z,80.68
2017-10-30T22:41:58.534Z,81.08
2017-10-30T22:44:26.125Z,81.03
2017-10-30T22:46:53.760Z,81.04
2017-10-30T22:49:21.390Z,81.62
2017-10-30T22:51:49.008Z,81.84
2017-10-30T22:54:16.598Z,81.86
2017-10-30T22:56:44.289Z,82.13
2017-10-30T22:59:11.930Z,82.40
2017-10-30T23:01:39.521Z,82.25
2017-10-30T23:04:07.117Z,82.19
2017-10-30T23:06:34.743Z,82.10
2017-10-30T23:09:02.449Z,82.25
2017-10-30T23:11:30.072Z,82.29
2017-10-30T23:13:57.677Z,82.32
2017-10-30T23:16:25.329Z,82.37
2017-10-30T23:18:52.926Z,82.49
2017-10-30T23:21:20.563Z,82.72
2017-10-30T23:23:48.158Z,82.56
2017-10-30T23:26:15.782Z,82.72
2017-10-30T23:28:43.380Z,82.54
2017-10-30T23:31:11.020Z,82.53
2017-10-30T23:33:38.606Z,82.66
2017-10-30T23:36:06.249Z,82.61
2017-10-30T23:38:33.847Z,82.81
2017-10-30T23:41:01.463Z,82.78
2017-10-30T23:43:29.064Z,82.90
2017-10-30T23:45:56.683Z,82.81
2017-10-30T23:48:24.266Z,83.03
2017-10-30T23:50:51.974Z,82.87
2017-10-30T23:53:19.550Z,83.21
2017-10-30T23:55:47.183Z,83.43
2017-10-30T23:58:14.789Z,83.76
